Time;durP1;ratioP1;P1;durP2;ratioP2;P2;SDS_P1;SDS_P2;PMS_P1;PMS_P2;Temp;Humidity;BMP_temperature;BMP_pressure;BME280_temperature;BME280_humidity;BME280_pressure;Samples;Min_cycle;Max_cycle;Signal;HPM_P1;HPM_P2
2021/11/08 00:00:55;;;;;;;9.07;5.38;;;7.90;73.10;;;;;;5008092;28;20095;-80
2021/11/08 00:03:26;;;;;;;9.73;5.13;;;7.80;72.90;;;;;;5002013;28;20030;-81
2021/11/08 00:05:52;;;;;;;12.60;5.45;;;7.80;72.90;;;;;;4988711;28;20360;-80
2021/11/08 00:08:18;;;;;;;12.40;5.90;;;7.80;73.00;;;;;;4987924;28;20495;-80
2021/11/08 00:10:46;;;;;;;9.02;5.95;;;7.80;73.00;;;;;;4988407;28;20038;-79
2021/11/08 00:13:12;;;;;;;9.88;4.90;;;7.80;73.00;;;;;;4988671;28;20430;-80
2021/11/08 00:20:46;;;;;;;9.45;5.20;;;7.70;72.90;;;;;;4988243;28;20032;-79
2021/11/08 00:23:14;;;;;;;8.98;4.85;;;7.70;72.80;;;;;;4988155;28;20038;-79
2021/11/08 00:25:41;;;;;;;9.70;5.07;;;7.70;72.80;;;;;;4988572;28;20066;-79
2021/11/08 00:28:09;;;;;;;9.10;4.85;;;7.70;72.90;;;;;;4987948;28;20045;-79
2021/11/08 00:30:36;;;;;;;8.43;5.45;;;7.60;72.70;;;;;;4987127;28;20054;-80
2021/11/08 00:33:08;;;;;;;8.32;4.88;;;7.60;72.70;;;;;;4988221;28;20443;-79
2021/11/08 00:35:38;;;;;;;9.52;4.80;;;7.60;72.70;;;;;;4987510;28;20265;-79
2021/11/08 00:38:05;;;;;;;11.57;5.38;;;7.50;72.60;;;;;;4988385;28;20478;-79
2021/11/08 00:40:31;;;;;;;8.18;4.65;;;7.50;72.60;;;;;;5007775;28;20355;-79
2021/11/08 00:42:57;;;;;;;8.38;4.80;;;7.50;72.60;;;;;;5007288;28;20132;-81
2021/11/08 00:45:23;;;;;;;7.20;4.63;;;7.50;72.70;;;;;;5007445;28;20093;-80
2021/11/08 00:47:50;;;;;;;10.68;5.00;;;7.50;72.60;;;;;;4989795;28;20101;-80
2021/11/08 00:50:16;;;;;;;8.57;4.72;;;7.40;72.50;;;;;;4987580;28;20447;-80
2021/11/08 00:52:45;;;;;;;10.27;5.82;;;7.40;72.50;;;;;;4988418;28;20019;-80
2021/11/08 00:55:11;;;;;;;8.35;5.30;;;7.40;72.50;;;;;;5022621;28;20042;-80
2021/11/08 00:57:39;;;;;;;7.00;5.05;;;7.30;72.40;;;;;;5007189;28;20038;-80
2021/11/08 01:00:08;;;;;;;7.55;4.55;;;7.40;72.60;;;;;;5004731;28;20106;-80
2021/11/08 01:02:34;;;;;;;8.05;4.75;;;7.30;72.40;;;;;;5002673;28;20441;-80
2021/11/08 01:05:01;;;;;;;10.15;4.75;;;7.30;72.40;;;;;;4987282;28;20419;-79
2021/11/08 01:07:29;;;;;;;9.60;5.40;;;7.30;72.50;;;;;;4987006;28;20088;-80
2021/11/08 01:09:56;;;;;;;8.95;4.35;;;7.30;72.50;;;;;;5002752;28;20029;-80
2021/11/08 01:12:28;;;;;;;9.82;4.78;;;7.30;72.50;;;;;;5006067;28;20241;-81
2021/11/08 01:14:55;;;;;;;9.55;5.03;;;7.30;73.00;;;;;;4987134;28;20034;-80
2021/11/08 01:17:22;;;;;;;8.10;5.00;;;7.30;72.50;;;;;;4985290;28;20050;-80
2021/11/08 01:19:48;;;;;;;8.85;4.88;;;7.30;72.50;;;;;;4987206;28;20038;-79
2021/11/08 01:22:18;;;;;;;9.85;4.30;;;7.20;72.40;;;;;;4987461;28;20065;-79
2021/11/08 01:24:56;;;;;;;9.75;5.10;;;7.20;72.40;;;;;;4987583;28;20482;-79
2021/11/08 01:27:55;;;;;;;9.43;4.90;;;7.20;72.40;;;;;;4986670;28;20100;-80
2021/11/08 01:30:21;;;;;;;8.10;4.28;;;7.20;72.40;;;;;;4986860;28;20461;-80
2021/11/08 01:33:02;;;;;;;5.47;3.88;;;7.10;72.30;;;;;;4986963;28;20054;-80
2021/11/08 01:36:16;;;;;;;11.23;4.90;;;7.10;72.30;;;;;;5001571;28;20510;-79
2021/11/08 01:38:35;;;;;;;7.45;5.28;;;7.10;72.30;;;;;;4985973;28;20048;-80
2021/11/08 01:41:01;;;;;;;9.77;4.50;;;7.10;72.30;;;;;;4969540;28;20080;-79
2021/11/08 01:43:27;;;;;;;5.85;4.43;;;7.00;72.10;;;;;;4994122;28;20033;-78
2021/11/08 01:45:53;;;;;;;6.75;4.55;;;7.00;72.20;;;;;;5006988;28;20379;-78
2021/11/08 01:48:20;;;;;;;8.68;4.75;;;7.00;72.20;;;;;;4970301;28;20046;-79
2021/11/08 01:50:46;;;;;;;8.20;4.65;;;7.00;72.20;;;;;;4985214;28;20453;-78
2021/11/08 01:53:12;;;;;;;10.20;3.85;;;7.00;72.20;;;;;;4986928;28;20062;-79
2021/11/08 01:55:38;;;;;;;9.70;4.40;;;7.00;72.20;;;;;;4986450;28;20485;-79
2021/11/08 01:58:05;;;;;;;6.10;4.25;;;7.00;72.20;;;;;;4986572;28;20038;-79
2021/11/08 02:00:32;;;;;;;10.00;4.97;;;7.00;72.30;;;;;;4986583;28;20089;-79
2021/11/08 02:02:58;;;;;;;5.55;4.15;;;6.90;72.10;;;;;;4984854;28;20081;-79
2021/11/08 02:05:25;;;;;;;8.15;4.90;;;6.90;72.10;;;;;;4986490;28;20034;-79
2021/11/08 02:07:51;;;;;;;8.07;3.78;;;7.00;72.30;;;;;;4986254;28;20138;-79
2021/11/08 02:10:18;;;;;;;9.98;4.78;;;6.90;72.10;;;;;;4985816;28;20569;-79
2021/11/08 02:12:45;;;;;;;7.10;4.28;;;6.90;72.20;;;;;;4985903;28;20027;-80
2021/11/08 02:15:14;;;;;;;8.38;4.30;;;6.90;72.20;;;;;;4986645;28;20030;-79
2021/11/08 02:17:43;;;;;;;8.52;4.35;;;6.90;72.20;;;;;;4986194;28;20398;-79
2021/11/08 02:20:26;;;;;;;14.50;4.90;;;6.80;72.00;;;;;;4988105;28;20061;-80
2021/11/08 02:22:53;;;;;;;7.95;4.35;;;6.80;71.90;;;;;;4990735;28;20522;-80
2021/11/08 02:25:21;;;;;;;6.72;4.28;;;6.80;72.00;;;;;;4990498;28;20030;-80
2021/11/08 02:27:49;;;;;;;6.35;4.35;;;6.80;72.00;;;;;;4990652;28;20466;-79
2021/11/08 02:30:16;;;;;;;8.20;4.50;;;6.80;72.00;;;;;;4988841;28;20133;-79
2021/11/08 02:32:43;;;;;;;6.22;4.35;;;6.70;71.80;;;;;;4998350;28;20026;-79
2021/11/08 02:35:14;;;;;;;9.23;4.65;;;6.70;71.80;;;;;;5001945;28;20033;-80
2021/11/08 02:37:40;;;;;;;7.15;4.13;;;6.70;71.80;;;;;;4996691;28;20038;-79
2021/11/08 02:40:13;;;;;;;8.18;4.78;;;6.60;71.70;;;;;;4988328;28;20035;-79
2021/11/08 02:42:39;;;;;;;6.95;4.57;;;6.60;71.70;;;;;;4991642;28;20041;-79
2021/11/08 02:45:09;;;;;;;9.10;4.50;;;6.60;71.70;;;;;;4991690;28;20177;-79
2021/11/08 02:47:35;;;;;;;7.53;4.68;;;6.60;71.70;;;;;;4991540;28;20086;-80
2021/11/08 02:50:03;;;;;;;6.72;4.15;;;6.60;71.80;;;;;;4994577;28;20113;-80
2021/11/08 02:52:29;;;;;;;8.55;4.65;;;6.60;71.80;;;;;;4994906;28;20112;-79
2021/11/08 02:54:56;;;;;;;9.23;4.70;;;6.60;71.80;;;;;;4993216;28;20030;-79
2021/11/08 02:57:26;;;;;;;7.88;4.55;;;6.60;71.90;;;;;;4994469;28;20046;-80
2021/11/08 02:59:52;;;;;;;8.25;4.55;;;6.60;71.90;;;;;;5007711;28;20397;-80
2021/11/08 03:02:19;;;;;;;9.57;4.15;;;6.60;71.80;;;;;;5028651;28;20040;-78
2021/11/08 03:04:51;;;;;;;7.28;4.40;;;6.50;71.70;;;;;;5014289;28;20453;-79
2021/11/08 03:07:18;;;;;;;6.18;3.58;;;6.50;71.70;;;;;;5012784;28;20033;-80
2021/11/08 03:09:56;;;;;;;7.57;4.05;;;6.50;71.70;;;;;;5000305;28;20070;-80
2021/11/08 03:12:27;;;;;;;7.50;3.78;;;6.40;71.50;;;;;;5007761;28;20077;-79
2021/11/08 03:15:14;;;;;;;7.22;3.78;;;6.40;71.50;;;;;;5009598;28;20394;-79
2021/11/08 03:17:46;;;;;;;8.75;3.80;;;6.40;71.50;;;;;;4998836;28;20121;-79
2021/11/08 03:20:16;;;;;;;7.07;3.88;;;6.40;71.50;;;;;;4993684;28;20089;-79
2021/11/08 03:22:54;;;;;;;8.52;4.63;;;6.40;72.00;;;;;;5009479;28;20034;-80
2021/11/08 03:27:54;;;;;;;11.25;5.15;;;6.40;71.60;;;;;;4993821;28;20507;-80
2021/11/08 03:30:26;;;;;;;8.77;3.83;;;6.30;71.40;;;;;;4993918;28;20045;-80
2021/11/08 03:32:54;;;;;;;9.18;3.83;;;6.30;71.40;;;;;;4993910;28;20073;-80
2021/11/08 03:35:24;;;;;;;8.32;4.18;;;6.30;71.40;;;;;;4993921;28;20034;-80
2021/11/08 03:37:52;;;;;;;6.82;3.78;;;6.30;71.40;;;;;;4993994;28;20490;-80
2021/11/08 03:40:24;;;;;;;9.73;5.30;;;6.30;71.50;;;;;;4993224;28;20031;-78
2021/11/08 03:42:51;;;;;;;7.82;4.18;;;6.20;71.30;;;;;;4993599;28;20058;-79
2021/11/08 03:45:18;;;;;;;7.60;4.07;;;6.20;71.30;;;;;;4992443;28;20042;-79
2021/11/08 03:47:45;;;;;;;6.07;4.00;;;6.30;71.50;;;;;;4992899;28;20034;-79
2021/11/08 03:50:12;;;;;;;7.03;4.03;;;6.20;71.30;;;;;;4993646;28;20042;-79
2021/11/08 03:52:39;;;;;;;7.63;4.03;;;6.20;71.30;;;;;;5009129;28;20058;-78
2021/11/08 03:55:10;;;;;;;6.55;4.00;;;6.20;71.30;;;;;;4993504;28;20030;-81
2021/11/08 03:57:37;;;;;;;6.18;3.58;;;6.20;71.30;;;;;;4993804;28;20054;-79
2021/11/08 04:00:08;;;;;;;6.72;4.00;;;6.20;71.30;;;;;;4993442;28;20553;-79
2021/11/08 04:02:34;;;;;;;8.70;3.80;;;6.20;71.30;;;;;;4993641;28;20060;-79
2021/11/08 04:05:01;;;;;;;7.05;3.75;;;6.10;71.20;;;;;;4976258;28;20173;-79
2021/11/08 04:07:28;;;;;;;8.73;5.50;;;6.20;71.40;;;;;;4993464;28;20035;-79
2021/11/08 04:09:55;;;;;;;4.75;3.33;;;6.20;71.40;;;;;;4993261;28;20034;-80
2021/11/08 04:12:22;;;;;;;8.38;4.15;;;6.10;71.20;;;;;;4993074;28;20041;-81
2021/11/08 04:14:49;;;;;;;8.60;4.07;;;6.10;71.20;;;;;;4993189;28;20029;-80
2021/11/08 04:17:15;;;;;;;8.57;3.92;;;6.10;71.30;;;;;;4993039;28;20053;-81
2021/11/08 04:19:42;;;;;;;6.55;4.22;;;6.10;71.30;;;;;;4993113;28;20077;-79
2021/11/08 04:22:08;;;;;;;8.02;4.20;;;6.10;71.30;;;;;;4993363;28;20034;-79
2021/11/08 04:24:36;;;;;;;6.95;3.67;;;6.10;71.30;;;;;;4992945;28;20031;-78
2021/11/08 04:27:02;;;;;;;8.32;5.18;;;6.10;71.30;;;;;;4993181;28;20030;-78
2021/11/08 04:29:29;;;;;;;6.95;3.63;;;6.00;71.20;;;;;;4992663;28;20080;-79
2021/11/08 04:31:57;;;;;;;5.80;3.63;;;6.00;71.20;;;;;;4993213;28;20471;-78
2021/11/08 04:34:27;;;;;;;7.13;3.72;;;6.00;71.20;;;;;;4992666;28;20121;-79
2021/11/08 04:42:14;;;;;;;6.85;3.72;;;6.00;71.30;;;;;;4990628;28;20041;-79
2021/11/08 04:49:37;;;;;;;7.50;3.70;;;6.00;71.40;;;;;;4992301;28;20050;-80
2021/11/08 04:58:50;;;;;;;6.03;3.42;;;6.10;71.60;;;;;;4990047;28;20039;-79
2021/11/08 05:30:39;;;;;;;7.25;3.38;;;6.20;71.90;;;;;;4990574;28;20427;-78
2021/11/08 05:33:05;;;;;;;5.13;3.35;;;6.30;72.10;;;;;;4991678;28;20486;-80
2021/11/08 05:35:31;;;;;;;6.70;3.72;;;6.30;72.20;;;;;;4991765;28;20192;-79
2021/11/08 05:37:58;;;;;;;4.07;3.25;;;6.30;72.20;;;;;;4991714;28;20038;-79
2021/11/08 05:40:31;;;;;;;4.80;3.17;;;6.30;72.20;;;;;;4991734;28;20486;-79
2021/11/08 05:43:02;;;;;;;8.30;3.72;;;6.30;72.20;;;;;;4991133;28;20088;-79
2021/11/08 05:45:32;;;;;;;6.20;3.10;;;6.40;72.40;;;;;;4991398;28;20081;-79
2021/11/08 05:47:59;;;;;;;6.18;3.28;;;6.40;72.40;;;;;;4998239;28;20080;-79
2021/11/08 05:50:26;;;;;;;5.20;3.65;;;6.40;72.30;;;;;;4988154;28;20196;-79
2021/11/08 05:52:53;;;;;;;8.07;4.10;;;6.40;72.40;;;;;;5003734;28;20045;-80
2021/11/08 05:55:35;;;;;;;4.40;3.15;;;6.40;72.40;;;;;;4987383;28;20636;-80
2021/11/08 06:50:23;;;;;;;6.85;4.20;;;6.60;72.80;;;;;;4985510;28;20069;-85
2021/11/08 06:52:51;;;;;;;5.90;3.75;;;6.60;72.80;;;;;;4986965;28;20030;-79
2021/11/08 06:55:19;;;;;;;9.48;3.72;;;6.60;72.90;;;;;;4982545;28;20038;-78
2021/11/08 06:57:47;;;;;;;4.28;2.92;;;6.70;73.00;;;;;;4983167;28;20401;-85
2021/11/08 07:00:21;;;;;;;6.47;3.20;;;6.70;73.00;;;;;;5009035;28;20113;-86
2021/11/08 07:02:47;;;;;;;4.75;2.70;;;6.70;73.00;;;;;;4991292;28;20037;-88
2021/11/08 07:05:13;;;;;;;7.70;3.45;;;6.70;73.00;;;;;;5005162;28;20022;-84
2021/11/08 07:07:39;;;;;;;7.07;3.90;;;6.70;73.00;;;;;;5023264;28;20386;-86
2021/11/08 07:10:06;;;;;;;6.03;3.10;;;6.80;73.30;;;;;;5005298;28;20038;-86
2021/11/08 07:12:32;;;;;;;4.45;3.05;;;6.70;73.10;;;;;;4990087;28;20084;-81
2021/11/08 07:14:59;;;;;;;5.68;3.33;;;6.80;73.30;;;;;;4990252;28;20037;-85
2021/11/08 07:17:25;;;;;;;8.32;4.00;;;6.80;73.30;;;;;;4987976;28;20034;-80
2021/11/08 07:19:51;;;;;;;10.35;4.43;;;6.80;73.30;;;;;;4989474;28;20042;-81
2021/11/08 07:22:17;;;;;;;5.75;4.30;;;6.90;73.60;;;;;;4984903;28;20042;-80
2021/11/08 07:24:43;;;;;;;9.05;4.47;;;6.90;74.30;;;;;;4992171;28;20473;-80
2021/11/08 07:27:09;;;;;;;11.98;5.30;;;7.00;74.10;;;;;;4988646;28;20032;-81
2021/11/08 07:29:38;;;;;;;9.52;4.40;;;7.00;74.70;;;;;;4988061;28;20482;-79
2021/11/08 07:32:05;;;;;;;7.20;4.05;;;7.10;74.60;;;;;;4988875;28;20027;-80
2021/11/08 07:34:32;;;;;;;7.32;4.30;;;7.10;74.40;;;;;;5001715;28;20034;-79
2021/11/08 07:36:59;;;;;;;7.43;4.25;;;7.20;74.50;;;;;;4987730;28;20045;-83
2021/11/08 07:39:25;;;;;;;8.02;4.53;;;7.20;74.50;;;;;;5001016;28;20030;-82
2021/11/08 07:41:51;;;;;;;10.80;4.88;;;7.30;74.70;;;;;;4980564;28;20532;-82
2021/11/08 07:44:18;;;;;;;6.60;4.55;;;7.30;74.60;;;;;;4982698;28;20026;-84
2021/11/08 07:46:44;;;;;;;7.43;3.67;;;7.30;74.60;;;;;;4983387;28;20034;-85
2021/11/08 07:49:10;;;;;;;9.07;4.63;;;7.30;74.60;;;;;;4987199;28;20052;-83
2021/11/08 07:51:37;;;;;;;6.65;4.55;;;7.30;74.60;;;;;;5004420;28;20303;-80
2021/11/08 07:54:03;;;;;;;7.40;4.18;;;7.30;74.60;;;;;;4989282;28;20037;-84
2021/11/08 07:56:29;;;;;;;7.90;4.43;;;7.40;74.70;;;;;;5003900;28;20085;-84
2021/11/08 07:58:55;;;;;;;7.68;4.80;;;7.40;74.70;;;;;;5014903;28;20156;-85
2021/11/08 08:01:21;;;;;;;8.18;4.57;;;7.40;74.70;;;;;;5008611;28;20456;-85
2021/11/08 08:03:48;;;;;;;6.63;5.00;;;7.40;74.70;;;;;;5007690;28;20386;-83
2021/11/08 08:06:16;;;;;;;7.70;4.65;;;7.50;74.90;;;;;;5008227;28;20095;-84
2021/11/08 08:08:45;;;;;;;6.75;4.32;;;7.50;74.80;;;;;;5008209;28;20031;-83
2021/11/08 08:11:11;;;;;;;6.22;4.45;;;7.50;74.80;;;;;;5006333;28;20025;-83
2021/11/08 08:13:40;;;;;;;8.68;4.22;;;7.60;74.90;;;;;;5003344;28;20030;-85
2021/11/08 08:16:09;;;;;;;7.22;5.20;;;7.60;74.90;;;;;;4987663;28;20667;-82
2021/11/08 08:18:40;;;;;;;8.05;4.38;;;7.70;75.10;;;;;;4986905;28;20030;-84
2021/11/08 08:21:07;;;;;;;9.85;5.05;;;7.70;75.00;;;;;;4987414;28;20034;-83
2021/11/08 08:23:33;;;;;;;6.93;4.30;;;7.80;75.10;;;;;;5003077;28;20121;-82
2021/11/08 08:26:00;;;;;;;10.63;4.95;;;7.80;75.00;;;;;;4970453;28;20034;-82
2021/11/08 08:28:26;;;;;;;9.75;5.30;;;7.90;75.20;;;;;;4988286;28;20526;-82
2021/11/08 08:30:52;;;;;;;7.80;4.35;;;8.00;75.30;;;;;;5003272;28;20026;-83
2021/11/08 08:33:18;;;;;;;7.18;4.50;;;8.00;75.20;;;;;;4986826;28;20034;-84
2021/11/08 08:35:44;;;;;;;8.70;4.70;;;8.00;75.10;;;;;;4988238;28;20037;-82
2021/11/08 08:38:14;;;;;;;6.00;3.83;;;8.10;75.20;;;;;;4987824;28;20046;-82
2021/11/08 08:40:41;;;;;;;8.98;4.50;;;8.10;75.20;;;;;;4986799;28;20038;-81
2021/11/08 08:43:08;;;;;;;6.30;4.50;;;8.10;75.10;;;;;;4986506;28;20449;-81
2021/11/08 08:45:36;;;;;;;9.77;4.70;;;8.20;75.30;;;;;;4986873;28;20045;-83
2021/11/08 08:48:03;;;;;;;8.38;4.50;;;8.20;75.20;;;;;;4987079;28;20042;-81
2021/11/08 08:50:30;;;;;;;8.85;4.90;;;8.30;75.30;;;;;;4987359;28;20119;-81
2021/11/08 08:52:56;;;;;;;10.00;4.95;;;8.30;75.30;;;;;;4970094;28;20045;-82
2021/11/08 08:55:22;;;;;;;10.85;5.13;;;8.30;75.20;;;;;;4986839;28;20037;-80
2021/11/08 08:57:48;;;;;;;7.68;5.10;;;8.30;75.20;;;;;;4985695;28;20026;-83
2021/11/08 09:00:18;;;;;;;9.60;4.93;;;8.40;75.30;;;;;;4988874;28;20050;-80
2021/11/08 09:02:44;;;;;;;8.45;4.47;;;8.40;75.30;;;;;;4993174;28;20464;-80
2021/11/08 09:05:10;;;;;;;8.20;4.88;;;8.40;75.20;;;;;;4973517;28;20035;-81
2021/11/08 09:07:37;;;;;;;6.35;4.38;;;8.50;75.30;;;;;;4983327;28;20030;-81
2021/11/08 09:10:04;;;;;;;6.75;5.15;;;8.60;75.50;;;;;;4986886;28;20035;-80
2021/11/08 09:12:30;;;;;;;10.98;5.20;;;8.70;75.60;;;;;;4985920;28;20046;-82
2021/11/08 09:14:56;;;;;;;5.82;4.60;;;8.70;75.50;;;;;;4986089;28;20129;-83
2021/11/08 09:17:22;;;;;;;8.25;4.68;;;8.80;76.00;;;;;;4969592;28;20073;-83
2021/11/08 09:19:48;;;;;;;7.30;4.97;;;8.90;75.60;;;;;;4987227;28;20030;-80
2021/11/08 09:22:15;;;;;;;9.07;4.90;;;9.00;75.60;;;;;;4986160;28;20045;-81
2021/11/08 09:24:44;;;;;;;9.05;4.32;;;9.10;75.70;;;;;;4985511;28;20443;-79
2021/11/08 09:27:10;;;;;;;8.57;4.32;;;9.20;75.70;;;;;;4987106;28;20026;-79
2021/11/08 09:29:36;;;;;;;6.75;4.40;;;9.20;75.60;;;;;;4986907;28;20434;-79
2021/11/08 09:32:03;;;;;;;8.07;4.82;;;9.30;75.70;;;;;;4987252;28;20145;-81
2021/11/08 09:34:29;;;;;;;8.75;4.88;;;9.40;75.70;;;;;;5006093;28;20037;-80
2021/11/08 09:36:59;;;;;;;7.03;4.30;;;9.50;75.80;;;;;;5006642;28;20045;-81
2021/11/08 09:39:27;;;;;;;7.38;4.85;;;9.50;75.60;;;;;;4990328;28;20697;-78
2021/11/08 09:41:59;;;;;;;9.55;4.65;;;9.60;75.70;;;;;;5001728;28;20525;-79
2021/11/08 09:44:25;;;;;;;8.15;4.70;;;9.60;75.60;;;;;;4978076;28;20080;-80
2021/11/08 09:46:53;;;;;;;6.68;4.63;;;9.70;75.60;;;;;;4980806;28;20060;-80
2021/11/08 09:49:20;;;;;;;8.52;4.78;;;9.70;75.60;;;;;;4986548;28;20383;-79
2021/11/08 09:51:49;;;;;;;7.68;5.03;;;9.80;75.70;;;;;;4987000;28;20042;-80
2021/11/08 09:54:17;;;;;;;12.25;4.68;;;9.80;75.60;;;;;;4986269;28;20076;-80
2021/11/08 09:56:46;;;;;;;9.07;4.65;;;9.90;75.70;;;;;;4984949;28;20096;-79
2021/11/08 09:59:14;;;;;;;8.75;5.50;;;9.90;75.70;;;;;;4985610;28;20494;-79
2021/11/08 10:01:43;;;;;;;7.07;4.38;;;9.90;75.60;;;;;;4986175;28;20133;-79
2021/11/08 10:04:10;;;;;;;10.23;6.20;;;10.00;75.70;;;;;;4986259;28;20080;-80
2021/11/08 10:06:38;;;;;;;6.47;4.93;;;10.10;75.70;;;;;;5001738;28;20464;-80
2021/11/08 10:09:06;;;;;;;6.72;4.10;;;10.20;75.80;;;;;;4986503;28;20028;-80
2021/11/08 10:11:34;;;;;;;7.30;4.40;;;10.20;75.70;;;;;;4987034;28;20276;-80
2021/11/08 10:14:03;;;;;;;11.50;5.15;;;10.30;75.80;;;;;;4986763;28;20031;-80
2021/11/08 10:16:32;;;;;;;5.28;4.00;;;10.30;75.70;;;;;;4986024;28;20621;-79
2021/11/08 10:19:00;;;;;;;6.95;4.38;;;10.40;75.70;;;;;;4997938;28;20207;-81
2021/11/08 10:21:29;;;;;;;8.13;4.60;;;10.50;75.80;;;;;;5021177;28;20045;-79
2021/11/08 10:23:57;;;;;;;7.57;4.07;;;10.60;75.80;;;;;;4991146;28;20045;-80
2021/11/08 10:26:27;;;;;;;4.32;3.63;;;10.70;75.90;;;;;;4985471;28;20053;-81
2021/11/08 10:29:00;;;;;;;6.57;4.25;;;10.80;75.90;;;;;;4996151;28;20025;-82
2021/11/08 10:31:33;;;;;;;7.28;4.40;;;10.90;75.90;;;;;;5006515;28;20041;-81
2021/11/08 10:34:04;;;;;;;6.40;4.63;;;11.00;75.90;;;;;;4990173;28;20066;-81
2021/11/08 10:36:31;;;;;;;8.75;4.45;;;11.10;75.90;;;;;;4986643;28;20120;-81
2021/11/08 10:38:59;;;;;;;10.48;5.10;;;11.20;75.90;;;;;;4986459;28;20582;-81
2021/11/08 10:41:32;;;;;;;9.27;4.07;;;11.30;76.00;;;;;;4987757;28;20030;-81
2021/11/08 10:44:08;;;;;;;6.75;4.65;;;11.30;75.80;;;;;;4990100;28;20077;-81
2021/11/08 10:46:41;;;;;;;8.57;4.82;;;11.40;75.80;;;;;;5004834;28;20031;-81
2021/11/08 10:49:10;;;;;;;8.05;4.13;;;11.50;75.80;;;;;;4988392;28;20421;-80
2021/11/08 10:51:38;;;;;;;6.35;4.40;;;11.60;75.80;;;;;;4990040;28;20030;-81
2021/11/08 10:54:09;;;;;;;7.18;3.80;;;11.60;75.80;;;;;;4989420;28;20424;-81
2021/11/08 10:56:54;;;;;;;7.85;4.53;;;11.70;75.80;;;;;;4988402;28;20057;-81
2021/11/08 10:59:25;;;;;;;8.15;4.22;;;11.70;75.70;;;;;;4999972;28;20085;-83
2021/11/08 11:01:54;;;;;;;6.93;4.10;;;11.80;75.80;;;;;;5025003;28;20034;-85
2021/11/08 11:04:44;;;;;;;8.60;5.32;;;11.80;75.80;;;;;;5005372;28;20034;-81
2021/11/08 11:07:34;;;;;;;5.13;3.28;;;11.90;75.80;;;;;;4988447;28;20089;-81
2021/11/08 11:10:00;;;;;;;8.55;4.40;;;11.90;75.60;;;;;;4983317;28;20034;-79
2021/11/08 11:12:29;;;;;;;6.93;3.45;;;12.00;75.70;;;;;;4980295;28;20371;-81
2021/11/08 11:14:58;;;;;;;8.85;4.05;;;12.10;75.80;;;;;;5004896;28;20113;-81
2021/11/08 11:17:31;;;;;;;7.10;4.22;;;12.10;75.60;;;;;;4987391;28;20041;-81
2021/11/08 11:20:04;;;;;;;6.97;3.88;;;12.20;75.80;;;;;;4972032;28;20042;-81
2021/11/08 11:22:31;;;;;;;7.05;3.85;;;12.30;75.80;;;;;;4988053;28;20502;-81
2021/11/08 11:24:57;;;;;;;5.78;3.13;;;12.40;75.80;;;;;;4989704;28;20037;-81
2021/11/08 11:27:29;;;;;;;6.00;3.70;;;12.50;75.90;;;;;;4989571;28;20058;-81
2021/11/08 11:30:24;;;;;;;6.83;3.73;;;12.60;75.90;;;;;;4988053;28;20038;-80
2021/11/08 11:33:01;;;;;;;5.20;3.33;;;12.80;76.00;;;;;;4989194;28;20030;-80
2021/11/08 11:35:31;;;;;;;7.53;3.15;;;12.90;75.90;;;;;;4988975;28;20034;-81
2021/11/08 11:38:09;;;;;;;5.95;3.50;;;13.00;75.90;;;;;;5004982;28;20046;-81
2021/11/08 11:40:41;;;;;;;6.57;3.30;;;13.10;75.80;;;;;;4988125;28;20019;-81
2021/11/08 11:43:11;;;;;;;5.90;3.78;;;13.20;75.80;;;;;;4981904;28;20518;-80
2021/11/08 11:45:50;;;;;;;5.47;3.00;;;13.30;75.90;;;;;;4983541;28;20030;-80
2021/11/08 11:48:18;;;;;;;6.60;3.05;;;13.30;75.70;;;;;;4988866;28;20475;-82
2021/11/08 11:50:44;;;;;;;6.97;4.10;;;13.40;75.70;;;;;;5003997;28;20379;-81
2021/11/08 11:53:10;;;;;;;3.70;2.97;;;13.40;75.60;;;;;;4988610;28;20022;-83
2021/11/08 11:55:38;;;;;;;4.78;3.75;;;13.50;75.70;;;;;;4989198;28;20493;-81
2021/11/08 11:58:05;;;;;;;6.38;3.45;;;13.50;75.60;;;;;;4989710;28;20524;-82
2021/11/08 12:00:37;;;;;;;4.32;2.70;;;13.60;75.70;;;;;;5002981;28;20486;-82
2021/11/08 12:03:05;;;;;;;4.85;2.97;;;13.60;75.50;;;;;;4995389;28;20518;-82
2021/11/08 12:05:31;;;;;;;5.78;3.20;;;13.60;75.40;;;;;;5008460;28;20033;-82
2021/11/08 12:08:00;;;;;;;6.70;2.45;;;13.70;75.50;;;;;;5004759;28;20109;-84
2021/11/08 12:10:27;;;;;;;6.78;3.47;;;13.80;75.50;;;;;;4988251;28;20031;-81
2021/11/08 12:12:53;;;;;;;3.80;3.38;;;13.80;75.40;;;;;;4988760;28;20030;-83
2021/11/08 12:15:30;;;;;;;7.72;3.72;;;13.80;75.30;;;;;;5003188;28;20112;-80
2021/11/08 12:18:09;;;;;;;5.75;3.15;;;13.90;75.30;;;;;;4988424;28;20281;-81
2021/11/08 12:20:47;;;;;;;7.72;3.40;;;13.90;75.40;;;;;;4988034;28;20026;-81
2021/11/08 12:23:26;;;;;;;5.63;3.03;;;14.00;75.70;;;;;;4988064;28;20117;-80
2021/11/08 12:25:53;;;;;;;3.53;2.00;;;14.10;75.80;;;;;;4988407;28;20185;-80
2021/11/08 12:28:27;;;;;;;6.60;2.88;;;14.10;75.70;;;;;;4994129;28;20444;-80
2021/11/08 12:31:04;;;;;;;6.03;2.80;;;14.20;75.80;;;;;;5007768;28;20030;-80
2021/11/08 12:33:36;;;;;;;6.47;3.25;;;14.40;76.10;;;;;;4996431;28;20044;-82
2021/11/08 12:36:11;;;;;;;6.10;2.15;;;14.40;76.00;;;;;;4987828;28;20042;-79
2021/11/08 12:38:42;;;;;;;7.00;2.30;;;14.40;76.00;;;;;;4991600;28;20103;-79
2021/11/08 12:41:17;;;;;;;6.68;2.70;;;14.50;76.20;;;;;;4986550;28;20477;-81
2021/11/08 12:43:50;;;;;;;10.70;3.13;;;14.50;76.20;;;;;;4987557;28;20068;-83
2021/11/08 12:46:21;;;;;;;3.42;1.88;;;14.50;76.20;;;;;;4987872;28;20022;-79
2021/11/08 12:48:48;;;;;;;5.15;2.47;;;14.50;76.30;;;;;;4996522;28;20074;-82
2021/11/08 12:51:17;;;;;;;8.15;3.17;;;14.50;76.30;;;;;;5006821;28;20030;-83
2021/11/08 12:53:47;;;;;;;11.60;3.67;;;14.60;76.50;;;;;;4993353;28;20038;-81
2021/11/08 12:56:40;;;;;;;8.25;2.90;;;14.60;76.60;;;;;;5002651;28;20050;-82
2021/11/08 12:59:14;;;;;;;;;;;14.60;76.80;;;;;;4988132;28;20039;-84
2021/11/08 13:01:47;;;;;;;;;;;14.60;76.70;;;;;;4988734;28;19913;-84
2021/11/08 13:04:16;;;;;;;8.07;2.63;;;14.70;76.90;;;;;;5003996;28;19963;-83
2021/11/08 13:06:43;;;;;;;8.32;2.95;;;14.60;76.60;;;;;;5006384;28;20117;-80
2021/11/08 13:09:25;;;;;;;3.85;2.80;;;14.70;76.90;;;;;;4994769;28;20030;-80
2021/11/08 13:11:55;;;;;;;7.22;2.47;;;14.70;76.90;;;;;;5002626;28;20057;-82
2021/11/08 13:14:35;;;;;;;8.32;3.30;;;14.70;77.00;;;;;;4987314;28;20126;-81
2021/11/08 13:17:29;;;;;;;8.05;2.92;;;14.60;77.10;;;;;;4987122;28;20041;-82
2021/11/08 13:20:02;;;;;;;6.75;2.70;;;14.70;77.40;;;;;;4985387;28;20034;-82
2021/11/08 13:22:52;;;;;;;6.55;2.58;;;14.70;77.50;;;;;;4987542;28;20096;-82
2021/11/08 13:25:38;;;;;;;5.88;2.53;;;14.70;77.70;;;;;;4987549;28;20030;-85
2021/11/08 13:28:16;;;;;;;6.55;2.50;;;14.80;77.90;;;;;;4975458;28;20053;-82
2021/11/08 13:30:47;;;;;;;5.75;2.45;;;14.90;78.10;;;;;;4987029;28;20169;-83
2021/11/08 13:33:23;;;;;;;6.55;2.50;;;14.90;78.00;;;;;;4987381;28;20031;-85
2021/11/08 13:35:50;;;;;;;6.30;3.05;;;14.90;78.00;;;;;;4986693;28;20078;-81
2021/11/08 13:38:23;;;;;;;5.35;2.78;;;14.90;77.90;;;;;;4992353;28;20349;-82
2021/11/08 13:41:17;;;;;;;6.00;2.97;;;15.00;78.00;;;;;;5007173;28;20418;-82
2021/11/08 13:43:57;;;;;;;6.63;2.78;;;15.00;78.00;;;;;;4989383;28;20038;-81
2021/11/08 13:46:25;;;;;;;6.10;3.90;;;15.10;78.10;;;;;;4986782;28;20935;-82
2021/11/08 13:48:59;;;;;;;10.13;2.45;;;15.10;78.00;;;;;;4995769;28;20042;-83
2021/11/08 13:51:36;;;;;;;5.00;2.40;;;15.10;77.90;;;;;;4982793;28;20046;-81
2021/11/08 13:54:10;;;;;;;6.78;2.72;;;15.10;77.80;;;;;;4996603;28;20129;-81
2021/11/08 13:56:38;;;;;;;6.03;2.10;;;15.10;77.80;;;;;;5006337;28;20041;-81
2021/11/08 13:59:12;;;;;;;6.05;2.28;;;15.10;77.70;;;;;;5006630;28;20032;-82
2021/11/08 14:01:45;;;;;;;8.73;2.72;;;15.20;77.80;;;;;;5006360;28;20041;-82
2021/11/08 14:04:11;;;;;;;;;;;15.20;77.70;;;;;;5006967;28;20561;-82
2021/11/08 14:06:43;;;;;;;6.03;1.80;;;15.20;77.70;;;;;;5006010;28;20400;-82
2021/11/08 14:09:20;;;;;;;5.75;2.78;;;15.20;77.50;;;;;;4994082;28;20547;-82
2021/11/08 14:11:46;;;;;;;8.43;2.92;;;15.20;77.40;;;;;;5001663;28;20109;-81
2021/11/08 14:14:21;;;;;;;5.07;2.47;;;15.30;77.60;;;;;;5002799;28;20120;-81
2021/11/08 14:16:50;;;;;;;5.60;2.30;;;15.30;77.50;;;;;;4998304;28;20584;-82
2021/11/08 14:19:18;;;;;;;10.80;3.55;;;15.20;77.30;;;;;;4968844;28;20066;-81
2021/11/08 14:21:48;;;;;;;4.43;2.22;;;15.30;77.40;;;;;;4986727;28;20045;-81
2021/11/08 14:24:17;;;;;;;7.25;2.15;;;15.20;77.20;;;;;;4985759;28;20027;-82
2021/11/08 14:26:56;;;;;;;4.35;2.60;;;15.20;77.10;;;;;;4985368;28;20066;-82
2021/11/08 14:29:33;;;;;;;7.10;3.65;;;15.20;77.10;;;;;;4986779;28;20034;-82
2021/11/08 14:32:04;;;;;;;6.22;2.28;;;15.20;77.00;;;;;;4987335;28;20087;-82
2021/11/08 14:34:36;;;;;;;3.58;2.25;;;15.30;77.10;;;;;;5005337;28;20370;-82
2021/11/08 14:37:14;;;;;;;6.22;2.38;;;15.30;77.10;;;;;;4973273;28;20039;-82
2021/11/08 14:39:47;;;;;;;5.63;2.70;;;15.30;77.00;;;;;;5002775;28;20535;-83
2021/11/08 14:42:16;;;;;;;5.05;2.85;;;15.30;76.90;;;;;;5004750;28;20038;-80
2021/11/08 14:44:56;;;;;;;5.47;2.65;;;15.30;76.90;;;;;;4986605;28;20033;-82
2021/11/08 14:47:30;;;;;;;4.20;2.30;;;15.30;76.80;;;;;;4986671;28;20034;-83
2021/11/08 14:50:04;;;;;;;4.93;2.65;;;15.40;77.00;;;;;;4985338;28;20039;-81
2021/11/08 14:52:42;;;;;;;5.03;2.47;;;15.30;76.70;;;;;;5000408;28;20041;-81